sensor_id;sensor_type;location;lat;lon;timestamp;temperature;humidity
37702;DHT22;23548;51.196;6.838;2022-12-18T00:01:19;-4.30;99.90
37702;DHT22;23548;51.196;6.838;2022-12-18T00:03:45;-4.30;99.90
37702;DHT22;23548;51.196;6.838;2022-12-18T00:06:11;-4.20;99.90
37702;DHT22;23548;51.196;6.838;2022-12-18T00:08:37;-4.20;99.90
37702;DHT22;23548;51.196;6.838;2022-12-18T00:11:08;-4.20;99.90
37702;DHT22;23548;51.196;6.838;2022-12-18T00:13:35;-4.30;99.90
37702;DHT22;23548;51.196;6.838;2022-12-18T00:16:07;-4.30;99.90
37702;DHT22;23548;51.196;6.838;2022-12-18T00:18:34;-4.30;99.90
37702;DHT22;23548;51.196;6.838;2022-12-18T00:21:01;-4.30;99.90
37702;DHT22;23548;51.196;6.838;2022-12-18T00:23:28;-4.30;99.90
37702;DHT22;23548;51.196;6.838;2022-12-18T00:25:54;-4.20;99.90
37702;DHT22;23548;51.196;6.838;2022-12-18T00:28:19;-4.30;99.90
37702;DHT22;23548;51.196;6.838;2022-12-18T00:30:45;-4.40;99.90
37702;DHT22;23548;51.196;6.838;2022-12-18T00:33:11;-4.50;99.90
37702;DHT22;23548;51.196;6.838;2022-12-18T00:35:36;-4.50;99.90
37702;DHT22;23548;51.196;6.838;2022-12-18T00:38:02;-4.60;99.90
37702;DHT22;23548;51.196;6.838;2022-12-18T00:40:28;-4.60;99.90
37702;DHT22;23548;51.196;6.838;2022-12-18T00:42:54;-4.50;99.90
37702;DHT22;23548;51.196;6.838;2022-12-18T00:45:30;-4.60;99.90
37702;DHT22;23548;51.196;6.838;2022-12-18T00:47:56;-4.60;99.90
37702;DHT22;23548;51.196;6.838;2022-12-18T00:50:23;-4.80;99.90
37702;DHT22;23548;51.196;6.838;2022-12-18T00:52:49;-4.80;99.90
37702;DHT22;23548;51.196;6.838;2022-12-18T00:55:15;-4.90;99.90
37702;DHT22;23548;51.196;6.838;2022-12-18T00:57:41;-5.00;99.90
37702;DHT22;23548;51.196;6.838;2022-12-18T01:00:09;-5.00;99.90
37702;DHT22;23548;51.196;6.838;2022-12-18T01:02:36;-5.00;99.90
37702;DHT22;23548;51.196;6.838;2022-12-18T01:05:02;-5.00;99.90
37702;DHT22;23548;51.196;6.838;2022-12-18T01:07:27;-5.00;99.90
37702;DHT22;23548;51.196;6.838;2022-12-18T01:09:53;-4.90;99.90
37702;DHT22;23548;51.196;6.838;2022-12-18T01:12:19;-4.80;99.90
37702;DHT22;23548;51.196;6.838;2022-12-18T01:14:44;-4.90;99.90
37702;DHT22;23548;51.196;6.838;2022-12-18T01:17:10;-4.90;99.90
37702;DHT22;23548;51.196;6.838;2022-12-18T01:19:36;-4.80;99.90
37702;DHT22;23548;51.196;6.838;2022-12-18T01:22:01;-5.00;99.90
37702;DHT22;23548;51.196;6.838;2022-12-18T01:24:27;-5.00;99.90
37702;DHT22;23548;51.196;6.838;2022-12-18T01:26:52;-5.10;99.90
37702;DHT22;23548;51.196;6.838;2022-12-18T01:29:18;-5.10;99.90
37702;DHT22;23548;51.196;6.838;2022-12-18T01:31:44;-5.20;99.90
37702;DHT22;23548;51.196;6.838;2022-12-18T01:34:10;-5.10;99.90
37702;DHT22;23548;51.196;6.838;2022-12-18T01:36:37;-5.10;99.90
37702;DHT22;23548;51.196;6.838;2022-12-18T01:39:12;-5.20;99.90
37702;DHT22;23548;51.196;6.838;2022-12-18T01:41:38;-5.20;99.90
37702;DHT22;23548;51.196;6.838;2022-12-18T01:49:55;-5.10;99.90
37702;DHT22;23548;51.196;6.838;2022-12-18T01:52:22;-5.20;99.90
37702;DHT22;23548;51.196;6.838;2022-12-18T01:54:50;-5.20;99.90
37702;DHT22;23548;51.196;6.838;2022-12-18T01:57:17;-5.30;99.90
37702;DHT22;23548;51.196;6.838;2022-12-18T01:59:45;-5.40;99.90
37702;DHT22;23548;51.196;6.838;2022-12-18T02:02:14;-5.40;99.90
37702;DHT22;23548;51.196;6.838;2022-12-18T02:04:40;-5.30;99.90
37702;DHT22;23548;51.196;6.838;2022-12-18T02:12:28;-5.30;99.90
37702;DHT22;23548;51.196;6.838;2022-12-18T02:15:10;-5.40;99.90
37702;DHT22;23548;51.196;6.838;2022-12-18T02:17:52;-5.30;99.90
37702;DHT22;23548;51.196;6.838;2022-12-18T02:20:21;-5.20;99.90
37702;DHT22;23548;51.196;6.838;2022-12-18T02:28:15;-5.00;99.90
37702;DHT22;23548;51.196;6.838;2022-12-18T02:30:42;-4.90;99.90
37702;DHT22;23548;51.196;6.838;2022-12-18T02:33:11;-5.00;99.90
37702;DHT22;23548;51.196;6.838;2022-12-18T02:35:38;-4.90;99.90
37702;DHT22;23548;51.196;6.838;2022-12-18T02:38:06;-5.00;99.90
37702;DHT22;23548;51.196;6.838;2022-12-18T02:40:32;-4.90;99.90
37702;DHT22;23548;51.196;6.838;2022-12-18T02:43:14;-5.00;99.90
37702;DHT22;23548;51.196;6.838;2022-12-18T02:45:49;-5.00;99.90
37702;DHT22;23548;51.196;6.838;2022-12-18T02:48:39;-5.00;99.90
37702;DHT22;23548;51.196;6.838;2022-12-18T02:51:08;-5.00;99.90
37702;DHT22;23548;51.196;6.838;2022-12-18T02:53:49;-5.00;99.90
37702;DHT22;23548;51.196;6.838;2022-12-18T02:56:38;-5.00;99.90
37702;DHT22;23548;51.196;6.838;2022-12-18T02:59:31;-5.00;99.90
37702;DHT22;23548;51.196;6.838;2022-12-18T03:04:45;-4.90;99.90
37702;DHT22;23548;51.196;6.838;2022-12-18T03:07:19;-4.80;99.90
37702;DHT22;23548;51.196;6.838;2022-12-18T03:09:49;-4.90;99.90
37702;DHT22;23548;51.196;6.838;2022-12-18T03:12:28;-4.90;99.90
37702;DHT22;23548;51.196;6.838;2022-12-18T03:15:18;-4.90;99.90
37702;DHT22;23548;51.196;6.838;2022-12-18T03:17:59;-4.90;99.90
37702;DHT22;23548;51.196;6.838;2022-12-18T03:20:30;-4.90;99.90
37702;DHT22;23548;51.196;6.838;2022-12-18T03:23:07;-4.90;99.90
37702;DHT22;23548;51.196;6.838;2022-12-18T03:25:38;-4.90;99.90
37702;DHT22;23548;51.196;6.838;2022-12-18T03:28:07;-5.00;99.90
37702;DHT22;23548;51.196;6.838;2022-12-18T03:30:37;-5.10;99.90
37702;DHT22;23548;51.196;6.838;2022-12-18T03:33:18;-5.10;99.90
37702;DHT22;23548;51.196;6.838;2022-12-18T03:35:45;-5.00;99.90
37702;DHT22;23548;51.196;6.838;2022-12-18T03:38:12;-5.00;99.90
37702;DHT22;23548;51.196;6.838;2022-12-18T03:43:32;-5.10;99.90
37702;DHT22;23548;51.196;6.838;2022-12-18T03:46:07;-5.10;99.90
37702;DHT22;23548;51.196;6.838;2022-12-18T03:48:38;-5.10;99.90
37702;DHT22;23548;51.196;6.838;2022-12-18T03:51:59;-5.20;99.90
37702;DHT22;23548;51.196;6.838;2022-12-18T03:54:02;-5.20;99.90
37702;DHT22;23548;51.196;6.838;2022-12-18T03:56:32;-5.20;99.90
37702;DHT22;23548;51.196;6.838;2022-12-18T03:59:00;-5.30;99.90
37702;DHT22;23548;51.196;6.838;2022-12-18T04:01:34;-5.40;99.90
37702;DHT22;23548;51.196;6.838;2022-12-18T04:04:01;-5.40;99.90
37702;DHT22;23548;51.196;6.838;2022-12-18T04:06:29;-5.40;99.90
37702;DHT22;23548;51.196;6.838;2022-12-18T04:08:55;-5.30;99.90
37702;DHT22;23548;51.196;6.838;2022-12-18T04:11:22;-5.50;99.90
37702;DHT22;23548;51.196;6.838;2022-12-18T04:13:47;-5.50;99.90
37702;DHT22;23548;51.196;6.838;2022-12-18T04:16:13;-5.60;99.90
37702;DHT22;23548;51.196;6.838;2022-12-18T04:18:39;-5.60;99.90
37702;DHT22;23548;51.196;6.838;2022-12-18T04:21:05;-5.50;99.90
37702;DHT22;23548;51.196;6.838;2022-12-18T04:23:31;-5.40;99.90
37702;DHT22;23548;51.196;6.838;2022-12-18T04:25:56;-5.50;99.90
37702;DHT22;23548;51.196;6.838;2022-12-18T04:28:22;-5.60;99.90
37702;DHT22;23548;51.196;6.838;2022-12-18T04:30:48;-5.60;99.90
37702;DHT22;23548;51.196;6.838;2022-12-18T04:33:14;-5.70;99.90
37702;DHT22;23548;51.196;6.838;2022-12-18T04:35:40;-5.80;99.90
37702;DHT22;23548;51.196;6.838;2022-12-18T04:38:07;-5.90;99.90
37702;DHT22;23548;51.196;6.838;2022-12-18T04:40:34;-5.90;99.90
37702;DHT22;23548;51.196;6.838;2022-12-18T04:42:59;-5.80;99.90
37702;DHT22;23548;51.196;6.838;2022-12-18T04:45:25;-5.70;99.90
37702;DHT22;23548;51.196;6.838;2022-12-18T04:47:51;-5.70;99.90
37702;DHT22;23548;51.196;6.838;2022-12-18T04:50:17;-5.70;99.90
37702;DHT22;23548;51.196;6.838;2022-12-18T04:52:43;-5.60;99.90
37702;DHT22;23548;51.196;6.838;2022-12-18T04:55:08;-5.60;99.90
37702;DHT22;23548;51.196;6.838;2022-12-18T04:57:34;-5.70;99.90
37702;DHT22;23548;51.196;6.838;2022-12-18T05:00:00;-5.70;99.90
37702;DHT22;23548;51.196;6.838;2022-12-18T05:02:26;-5.70;99.90
37702;DHT22;23548;51.196;6.838;2022-12-18T05:04:51;-5.70;99.90
37702;DHT22;23548;51.196;6.838;2022-12-18T05:07:17;-5.70;99.90
37702;DHT22;23548;51.196;6.838;2022-12-18T05:09:43;-5.60;99.90
37702;DHT22;23548;51.196;6.838;2022-12-18T05:12:09;-5.50;99.90
37702;DHT22;23548;51.196;6.838;2022-12-18T05:14:35;-5.60;99.90
37702;DHT22;23548;51.196;6.838;2022-12-18T05:17:00;-5.60;99.90
37702;DHT22;23548;51.196;6.838;2022-12-18T05:19:26;-5.60;99.90
37702;DHT22;23548;51.196;6.838;2022-12-18T05:21:52;-5.70;99.90
37702;DHT22;23548;51.196;6.838;2022-12-18T05:24:17;-5.70;99.90
37702;DHT22;23548;51.196;6.838;2022-12-18T05:26:43;-5.60;99.90
37702;DHT22;23548;51.196;6.838;2022-12-18T05:29:09;-5.50;99.90
37702;DHT22;23548;51.196;6.838;2022-12-18T05:31:38;-5.50;99.90
37702;DHT22;23548;51.196;6.838;2022-12-18T05:34:04;-5.60;99.90
37702;DHT22;23548;51.196;6.838;2022-12-18T05:36:30;-5.60;99.90
37702;DHT22;23548;51.196;6.838;2022-12-18T05:38:55;-5.60;99.90
37702;DHT22;23548;51.196;6.838;2022-12-18T05:41:21;-5.70;99.90
37702;DHT22;23548;51.196;6.838;2022-12-18T05:43:47;-5.70;99.90
37702;DHT22;23548;51.196;6.838;2022-12-18T05:46:15;-5.70;99.90
37702;DHT22;23548;51.196;6.838;2022-12-18T05:48:42;-5.70;99.90
37702;DHT22;23548;51.196;6.838;2022-12-18T05:51:10;-5.60;99.90
37702;DHT22;23548;51.196;6.838;2022-12-18T05:53:36;-5.60;99.90
37702;DHT22;23548;51.196;6.838;2022-12-18T05:56:04;-5.50;99.90
37702;DHT22;23548;51.196;6.838;2022-12-18T05:58:31;-5.40;99.90
37702;DHT22;23548;51.196;6.838;2022-12-18T06:00:58;-5.30;99.90
37702;DHT22;23548;51.196;6.838;2022-12-18T06:03:30;-5.30;99.90
37702;DHT22;23548;51.196;6.838;2022-12-18T06:05:56;-5.30;99.90
37702;DHT22;23548;51.196;6.838;2022-12-18T06:08:25;-5.30;99.90
37702;DHT22;23548;51.196;6.838;2022-12-18T06:10:51;-5.30;99.90
37702;DHT22;23548;51.196;6.838;2022-12-18T06:13:20;-5.40;99.90
37702;DHT22;23548;51.196;6.838;2022-12-18T06:15:46;-5.40;99.90
37702;DHT22;23548;51.196;6.838;2022-12-18T06:18:13;-5.40;99.90
37702;DHT22;23548;51.196;6.838;2022-12-18T06:20:38;-5.40;99.90
37702;DHT22;23548;51.196;6.838;2022-12-18T06:23:06;-5.40;99.90
37702;DHT22;23548;51.196;6.838;2022-12-18T06:25:32;-5.30;99.90
37702;DHT22;23548;51.196;6.838;2022-12-18T06:27:58;-5.30;99.90
37702;DHT22;23548;51.196;6.838;2022-12-18T06:30:24;-5.20;99.90
37702;DHT22;23548;51.196;6.838;2022-12-18T06:32:50;-5.20;99.90
37702;DHT22;23548;51.196;6.838;2022-12-18T06:35:16;-5.20;99.90
37702;DHT22;23548;51.196;6.838;2022-12-18T06:37:42;-5.20;99.90
37702;DHT22;23548;51.196;6.838;2022-12-18T06:40:08;-5.30;99.90
37702;DHT22;23548;51.196;6.838;2022-12-18T06:42:34;-5.20;99.90
37702;DHT22;23548;51.196;6.838;2022-12-18T06:45:00;-5.20;99.90
37702;DHT22;23548;51.196;6.838;2022-12-18T06:47:25;-5.10;99.90
37702;DHT22;23548;51.196;6.838;2022-12-18T06:49:51;-5.10;99.90
37702;DHT22;23548;51.196;6.838;2022-12-18T06:52:17;-5.00;99.90
37702;DHT22;23548;51.196;6.838;2022-12-18T06:54:43;-5.00;99.90
37702;DHT22;23548;51.196;6.838;2022-12-18T06:57:08;-5.00;99.90
37702;DHT22;23548;51.196;6.838;2022-12-18T06:59:34;-4.90;99.90
37702;DHT22;23548;51.196;6.838;2022-12-18T07:02:00;-4.90;99.90
37702;DHT22;23548;51.196;6.838;2022-12-18T07:04:29;-4.80;99.90
37702;DHT22;23548;51.196;6.838;2022-12-18T07:06:55;-4.70;99.90
37702;DHT22;23548;51.196;6.838;2022-12-18T07:09:21;-4.60;99.90
37702;DHT22;23548;51.196;6.838;2022-12-18T07:11:46;-4.70;99.90
37702;DHT22;23548;51.196;6.838;2022-12-18T07:14:12;-4.70;99.90
37702;DHT22;23548;51.196;6.838;2022-12-18T07:16:38;-4.70;99.90
37702;DHT22;23548;51.196;6.838;2022-12-18T07:19:03;-4.70;99.90
37702;DHT22;23548;51.196;6.838;2022-12-18T07:21:29;-4.80;99.90
37702;DHT22;23548;51.196;6.838;2022-12-18T07:23:55;-4.70;99.90
37702;DHT22;23548;51.196;6.838;2022-12-18T07:26:21;-4.60;99.90
37702;DHT22;23548;51.196;6.838;2022-12-18T07:28:47;-4.60;99.90
37702;DHT22;23548;51.196;6.838;2022-12-18T07:31:19;-4.50;99.90
37702;DHT22;23548;51.196;6.838;2022-12-18T07:33:46;-4.50;99.90
37702;DHT22;23548;51.196;6.838;2022-12-18T07:36:12;-4.40;99.90
37702;DHT22;23548;51.196;6.838;2022-12-18T07:38:38;-4.30;99.90
37702;DHT22;23548;51.196;6.838;2022-12-18T07:41:06;-4.20;99.90
37702;DHT22;23548;51.196;6.838;2022-12-18T07:43:33;-4.20;99.90
37702;DHT22;23548;51.196;6.838;2022-12-18T07:45:59;-4.20;99.90
37702;DHT22;23548;51.196;6.838;2022-12-18T07:48:25;-4.10;99.90
37702;DHT22;23548;51.196;6.838;2022-12-18T07:50:50;-4.10;99.90
37702;DHT22;23548;51.196;6.838;2022-12-18T07:53:16;-4.00;99.90
37702;DHT22;23548;51.196;6.838;2022-12-18T07:55:42;-4.00;99.90
37702;DHT22;23548;51.196;6.838;2022-12-18T07:58:08;-4.10;99.90
37702;DHT22;23548;51.196;6.838;2022-12-18T08:00:35;-4.00;99.90
37702;DHT22;23548;51.196;6.838;2022-12-18T08:03:04;-4.10;99.90
37702;DHT22;23548;51.196;6.838;2022-12-18T08:05:30;-4.00;99.90
37702;DHT22;23548;51.196;6.838;2022-12-18T08:07:55;-4.00;99.90
37702;DHT22;23548;51.196;6.838;2022-12-18T08:10:24;-3.90;99.90
37702;DHT22;23548;51.196;6.838;2022-12-18T08:13:03;-3.90;99.90
37702;DHT22;23548;51.196;6.838;2022-12-18T08:15:29;-3.90;99.90
37702;DHT22;23548;51.196;6.838;2022-12-18T08:17:57;-3.90;99.90
37702;DHT22;23548;51.196;6.838;2022-12-18T08:20:23;-3.90;99.90
37702;DHT22;23548;51.196;6.838;2022-12-18T08:22:49;-3.90;99.90
37702;DHT22;23548;51.196;6.838;2022-12-18T08:25:15;-3.80;99.90
37702;DHT22;23548;51.196;6.838;2022-12-18T08:27:41;-3.70;99.90
37702;DHT22;23548;51.196;6.838;2022-12-18T08:30:07;-3.60;99.90
37702;DHT22;23548;51.196;6.838;2022-12-18T08:32:33;-3.60;99.90
37702;DHT22;23548;51.196;6.838;2022-12-18T08:34:59;-3.50;99.90
37702;DHT22;23548;51.196;6.838;2022-12-18T08:37:25;-3.40;99.90
37702;DHT22;23548;51.196;6.838;2022-12-18T08:39:50;-3.40;99.90
37702;DHT22;23548;51.196;6.838;2022-12-18T08:42:16;-3.30;99.90
37702;DHT22;23548;51.196;6.838;2022-12-18T08:45:00;-3.20;99.90
37702;DHT22;23548;51.196;6.838;2022-12-18T08:47:26;-3.20;99.90
37702;DHT22;23548;51.196;6.838;2022-12-18T08:49:52;-3.10;99.90
37702;DHT22;23548;51.196;6.838;2022-12-18T08:52:18;-3.10;99.90
37702;DHT22;23548;51.196;6.838;2022-12-18T08:54:44;-3.00;99.90
37702;DHT22;23548;51.196;6.838;2022-12-18T08:57:10;-2.90;99.90
37702;DHT22;23548;51.196;6.838;2022-12-18T08:59:36;-2.80;99.90
37702;DHT22;23548;51.196;6.838;2022-12-18T09:02:11;-2.70;99.90
37702;DHT22;23548;51.196;6.838;2022-12-18T09:04:37;-2.60;99.90
37702;DHT22;23548;51.196;6.838;2022-12-18T09:07:05;-2.60;99.90
37702;DHT22;23548;51.196;6.838;2022-12-18T09:09:31;-2.60;99.90
37702;DHT22;23548;51.196;6.838;2022-12-18T09:11:57;-2.50;99.90
37702;DHT22;23548;51.196;6.838;2022-12-18T09:14:23;-2.40;99.90
37702;DHT22;23548;51.196;6.838;2022-12-18T09:16:48;-2.40;99.90
37702;DHT22;23548;51.196;6.838;2022-12-18T09:19:14;-2.40;99.90
37702;DHT22;23548;51.196;6.838;2022-12-18T09:21:40;-2.30;99.90
37702;DHT22;23548;51.196;6.838;2022-12-18T09:24:06;-2.30;99.90
37702;DHT22;23548;51.196;6.838;2022-12-18T09:26:32;-2.20;99.90
37702;DHT22;23548;51.196;6.838;2022-12-18T09:28:57;-2.10;99.90
37702;DHT22;23548;51.196;6.838;2022-12-18T09:31:24;-1.90;99.90
37702;DHT22;23548;51.196;6.838;2022-12-18T09:33:50;-1.90;99.90
37702;DHT22;23548;51.196;6.838;2022-12-18T09:36:17;-1.80;99.90
37702;DHT22;23548;51.196;6.838;2022-12-18T09:38:43;-1.60;99.90
37702;DHT22;23548;51.196;6.838;2022-12-18T09:44:00;-1.40;99.90
37702;DHT22;23548;51.196;6.838;2022-12-18T09:46:30;-1.50;99.90
37702;DHT22;23548;51.196;6.838;2022-12-18T09:49:00;-1.30;99.90
37702;DHT22;23548;51.196;6.838;2022-12-18T09:51:32;-1.30;99.90
37702;DHT22;23548;51.196;6.838;2022-12-18T09:54:06;-1.20;99.90
37702;DHT22;23548;51.196;6.838;2022-12-18T09:56:36;-1.20;99.90
37702;DHT22;23548;51.196;6.838;2022-12-18T09:59:04;-1.10;99.90
37702;DHT22;23548;51.196;6.838;2022-12-18T10:01:31;-1.00;99.90
37702;DHT22;23548;51.196;6.838;2022-12-18T10:03:57;-1.00;99.90
37702;DHT22;23548;51.196;6.838;2022-12-18T10:06:39;-0.90;99.90
37702;DHT22;23548;51.196;6.838;2022-12-18T10:14:42;-0.50;99.90
37702;DHT22;23548;51.196;6.838;2022-12-18T10:19:44;-0.40;99.90
37702;DHT22;23548;51.196;6.838;2022-12-18T10:27:57;-0.10;99.90
37702;DHT22;23548;51.196;6.838;2022-12-18T10:30:24;-0.10;99.90
37702;DHT22;23548;51.196;6.838;2022-12-18T10:32:51;0.00;99.90
37702;DHT22;23548;51.196;6.838;2022-12-18T10:35:23;0.10;99.90
37702;DHT22;23548;51.196;6.838;2022-12-18T10:38:25;0.10;99.90
37702;DHT22;23548;51.196;6.838;2022-12-18T10:41:02;0.30;99.90
37702;DHT22;23548;51.196;6.838;2022-12-18T10:43:36;0.40;99.90
37702;DHT22;23548;51.196;6.838;2022-12-18T10:48:55;0.60;99.90
37702;DHT22;23548;51.196;6.838;2022-12-18T10:51:27;0.70;99.90
37702;DHT22;23548;51.196;6.838;2022-12-18T10:56:24;0.70;99.90
37702;DHT22;23548;51.196;6.838;2022-12-18T10:59:11;0.80;99.90
37702;DHT22;23548;51.196;6.838;2022-12-18T11:01:57;1.00;99.90
37702;DHT22;23548;51.196;6.838;2022-12-18T11:04:30;1.10;99.90
37702;DHT22;23548;51.196;6.838;2022-12-18T11:07:05;1.20;99.90
37702;DHT22;23548;51.196;6.838;2022-12-18T11:09:34;1.30;99.90
37702;DHT22;23548;51.196;6.838;2022-12-18T11:12:06;1.30;99.90
37702;DHT22;23548;51.196;6.838;2022-12-18T11:14:47;1.40;99.90
37702;DHT22;23548;51.196;6.838;2022-12-18T11:17:32;1.30;99.90
37702;DHT22;23548;51.196;6.838;2022-12-18T11:20:03;1.50;99.90
37702;DHT22;23548;51.196;6.838;2022-12-18T11:22:31;1.60;99.90
37702;DHT22;23548;51.196;6.838;2022-12-18T11:27:58;1.70;99.90
37702;DHT22;23548;51.196;6.838;2022-12-18T11:30:30;1.50;99.90
37702;DHT22;23548;51.196;6.838;2022-12-18T11:33:04;1.60;99.90
37702;DHT22;23548;51.196;6.838;2022-12-18T11:38:39;1.90;99.90
37702;DHT22;23548;51.196;6.838;2022-12-18T11:43:54;1.90;99.90
37702;DHT22;23548;51.196;6.838;2022-12-18T11:46:38;1.90;99.90
37702;DHT22;23548;51.196;6.838;2022-12-18T11:49:17;1.90;99.90
37702;DHT22;23548;51.196;6.838;2022-12-18T11:51:54;1.70;99.90
37702;DHT22;23548;51.196;6.838;2022-12-18T11:54:20;1.60;99.90
37702;DHT22;23548;51.196;6.838;2022-12-18T11:56:51;1.70;99.90
37702;DHT22;23548;51.196;6.838;2022-12-18T12:14:19;1.90;99.90
37702;DHT22;23548;51.196;6.838;2022-12-18T12:32:00;1.90;99.90
37702;DHT22;23548;51.196;6.838;2022-12-18T12:34:23;1.80;99.90
37702;DHT22;23548;51.196;6.838;2022-12-18T12:37:18;1.80;99.90
37702;DHT22;23548;51.196;6.838;2022-12-18T12:39:51;1.70;99.90
37702;DHT22;23548;51.196;6.838;2022-12-18T12:42:42;1.80;99.90
37702;DHT22;23548;51.196;6.838;2022-12-18T12:45:35;1.80;99.90
37702;DHT22;23548;51.196;6.838;2022-12-18T12:48:05;1.90;99.90
37702;DHT22;23548;51.196;6.838;2022-12-18T12:50:35;1.80;99.90
37702;DHT22;23548;51.196;6.838;2022-12-18T12:53:08;1.70;99.90
37702;DHT22;23548;51.196;6.838;2022-12-18T12:55:35;1.70;99.90
37702;DHT22;23548;51.196;6.838;2022-12-18T12:58:23;1.50;99.90
37702;DHT22;23548;51.196;6.838;2022-12-18T13:00:59;1.50;99.90
37702;DHT22;23548;51.196;6.838;2022-12-18T13:06:47;1.50;99.90
37702;DHT22;23548;51.196;6.838;2022-12-18T13:09:21;1.60;99.90
37702;DHT22;23548;51.196;6.838;2022-12-18T13:11:50;1.50;99.90
37702;DHT22;23548;51.196;6.838;2022-12-18T13:14:40;1.40;99.90
37702;DHT22;23548;51.196;6.838;2022-12-18T13:20:04;1.40;99.90
37702;DHT22;23548;51.196;6.838;2022-12-18T13:22:35;1.50;99.90
37702;DHT22;23548;51.196;6.838;2022-12-18T13:25:02;1.60;99.90
37702;DHT22;23548;51.196;6.838;2022-12-18T13:38:39;1.40;99.90
37702;DHT22;23548;51.196;6.838;2022-12-18T13:43:45;1.40;99.90
37702;DHT22;23548;51.196;6.838;2022-12-18T13:46:44;1.40;99.90
37702;DHT22;23548;51.196;6.838;2022-12-18T13:51:52;1.60;99.90
37702;DHT22;23548;51.196;6.838;2022-12-18T13:54:34;1.60;99.90
37702;DHT22;23548;51.196;6.838;2022-12-18T13:57:03;1.40;99.90
37702;DHT22;23548;51.196;6.838;2022-12-18T13:59:38;1.30;99.90
37702;DHT22;23548;51.196;6.838;2022-12-18T14:02:21;1.30;99.90
37702;DHT22;23548;51.196;6.838;2022-12-18T14:04:57;1.40;99.90
37702;DHT22;23548;51.196;6.838;2022-12-18T14:07:25;1.40;99.90
37702;DHT22;23548;51.196;6.838;2022-12-18T14:10:01;1.30;99.90
37702;DHT22;23548;51.196;6.838;2022-12-18T14:12:30;1.20;99.90
37702;DHT22;23548;51.196;6.838;2022-12-18T14:15:34;1.20;99.90
37702;DHT22;23548;51.196;6.838;2022-12-18T14:18:31;1.20;99.90
37702;DHT22;23548;51.196;6.838;2022-12-18T14:20:59;1.30;99.90
37702;DHT22;23548;51.196;6.838;2022-12-18T14:23:39;1.30;99.90
37702;DHT22;23548;51.196;6.838;2022-12-18T14:26:31;1.20;99.90
37702;DHT22;23548;51.196;6.838;2022-12-18T14:29:01;1.20;99.90
37702;DHT22;23548;51.196;6.838;2022-12-18T14:31:32;1.10;99.90
37702;DHT22;23548;51.196;6.838;2022-12-18T14:33:58;1.10;99.90
37702;DHT22;23548;51.196;6.838;2022-12-18T14:36:39;1.00;99.90
37702;DHT22;23548;51.196;6.838;2022-12-18T14:39:18;1.10;99.90
37702;DHT22;23548;51.196;6.838;2022-12-18T14:41:44;1.10;99.90
37702;DHT22;23548;51.196;6.838;2022-12-18T14:44:12;1.10;99.90
37702;DHT22;23548;51.196;6.838;2022-12-18T14:46:50;0.90;99.90
37702;DHT22;23548;51.196;6.838;2022-12-18T14:49:33;1.00;99.90
37702;DHT22;23548;51.196;6.838;2022-12-18T14:52:02;0.90;99.90
37702;DHT22;23548;51.196;6.838;2022-12-18T14:54:30;1.00;99.90
37702;DHT22;23548;51.196;6.838;2022-12-18T14:57:05;1.00;99.90
37702;DHT22;23548;51.196;6.838;2022-12-18T14:59:32;0.90;99.90
37702;DHT22;23548;51.196;6.838;2022-12-18T15:05:05;0.90;99.90
37702;DHT22;23548;51.196;6.838;2022-12-18T15:13:08;0.80;99.90
37702;DHT22;23548;51.196;6.838;2022-12-18T15:20:56;0.90;99.90
37702;DHT22;23548;51.196;6.838;2022-12-18T15:23:27;0.90;99.90
37702;DHT22;23548;51.196;6.838;2022-12-18T15:28:53;0.80;99.90
37702;DHT22;23548;51.196;6.838;2022-12-18T15:31:36;0.80;99.90
37702;DHT22;23548;51.196;6.838;2022-12-18T15:36:44;0.60;99.90
37702;DHT22;23548;51.196;6.838;2022-12-18T15:39:13;0.70;99.90
37702;DHT22;23548;51.196;6.838;2022-12-18T15:42:02;0.70;99.90
37702;DHT22;23548;51.196;6.838;2022-12-18T15:45:05;0.60;99.90
37702;DHT22;23548;51.196;6.838;2022-12-18T15:47:43;0.70;99.90
37702;DHT22;23548;51.196;6.838;2022-12-18T15:50:15;0.70;99.90
37702;DHT22;23548;51.196;6.838;2022-12-18T15:52:44;0.70;99.90
37702;DHT22;23548;51.196;6.838;2022-12-18T15:55:16;0.70;99.90
37702;DHT22;23548;51.196;6.838;2022-12-18T15:58:01;0.70;99.90
37702;DHT22;23548;51.196;6.838;2022-12-18T16:00:27;0.60;99.90
37702;DHT22;23548;51.196;6.838;2022-12-18T16:02:56;0.60;99.90
37702;DHT22;23548;51.196;6.838;2022-12-18T16:05:26;0.60;99.90
37702;DHT22;23548;51.196;6.838;2022-12-18T16:07:59;0.70;99.90
37702;DHT22;23548;51.196;6.838;2022-12-18T16:10:31;0.70;99.90
37702;DHT22;23548;51.196;6.838;2022-12-18T16:13:02;0.60;99.90
37702;DHT22;23548;51.196;6.838;2022-12-18T16:15:31;0.50;99.90
37702;DHT22;23548;51.196;6.838;2022-12-18T16:17:56;0.40;99.90
37702;DHT22;23548;51.196;6.838;2022-12-18T16:20:23;0.50;99.90
37702;DHT22;23548;51.196;6.838;2022-12-18T16:22:51;0.40;99.90
37702;DHT22;23548;51.196;6.838;2022-12-18T16:25:27;0.40;99.90
37702;DHT22;23548;51.196;6.838;2022-12-18T16:28:01;0.40;99.90
37702;DHT22;23548;51.196;6.838;2022-12-18T16:30:30;0.40;99.90
37702;DHT22;23548;51.196;6.838;2022-12-18T16:32:59;0.40;99.90
37702;DHT22;23548;51.196;6.838;2022-12-18T16:35:26;0.50;99.90
37702;DHT22;23548;51.196;6.838;2022-12-18T16:37:53;0.50;99.90
37702;DHT22;23548;51.196;6.838;2022-12-18T16:40:20;0.50;99.90
37702;DHT22;23548;51.196;6.838;2022-12-18T16:42:49;0.50;99.90
37702;DHT22;23548;51.196;6.838;2022-12-18T16:45:21;0.50;99.90
37702;DHT22;23548;51.196;6.838;2022-12-18T16:47:48;0.40;99.90
37702;DHT22;23548;51.196;6.838;2022-12-18T16:50:14;0.40;99.90
37702;DHT22;23548;51.196;6.838;2022-12-18T16:52:46;0.50;99.90
37702;DHT22;23548;51.196;6.838;2022-12-18T16:55:11;0.40;99.90
37702;DHT22;23548;51.196;6.838;2022-12-18T16:57:40;0.40;99.90
37702;DHT22;23548;51.196;6.838;2022-12-18T17:00:13;0.50;99.90
37702;DHT22;23548;51.196;6.838;2022-12-18T17:02:39;0.40;99.90
37702;DHT22;23548;51.196;6.838;2022-12-18T17:05:06;0.40;99.90
37702;DHT22;23548;51.196;6.838;2022-12-18T17:07:40;0.40;99.90
37702;DHT22;23548;51.196;6.838;2022-12-18T17:10:10;0.40;99.90
37702;DHT22;23548;51.196;6.838;2022-12-18T17:12:38;0.30;99.90
37702;DHT22;23548;51.196;6.838;2022-12-18T17:15:10;0.30;99.90
37702;DHT22;23548;51.196;6.838;2022-12-18T17:17:41;0.30;99.90
37702;DHT22;23548;51.196;6.838;2022-12-18T17:20:09;0.40;99.90
37702;DHT22;23548;51.196;6.838;2022-12-18T17:22:38;0.40;99.90
37702;DHT22;23548;51.196;6.838;2022-12-18T17:25:10;0.40;99.90
37702;DHT22;23548;51.196;6.838;2022-12-18T17:27:44;0.40;99.90
37702;DHT22;23548;51.196;6.838;2022-12-18T17:30:14;0.40;99.90
37702;DHT22;23548;51.196;6.838;2022-12-18T17:32:41;0.20;99.90
37702;DHT22;23548;51.196;6.838;2022-12-18T17:35:08;0.30;99.90
37702;DHT22;23548;51.196;6.838;2022-12-18T17:37:44;0.30;99.90
37702;DHT22;23548;51.196;6.838;2022-12-18T17:40:10;0.30;99.90
37702;DHT22;23548;51.196;6.838;2022-12-18T17:42:48;0.40;99.90
37702;DHT22;23548;51.196;6.838;2022-12-18T17:45:17;0.20;99.90
37702;DHT22;23548;51.196;6.838;2022-12-18T17:47:44;0.20;99.90
37702;DHT22;23548;51.196;6.838;2022-12-18T17:50:31;0.20;99.90
37702;DHT22;23548;51.196;6.838;2022-12-18T17:53:02;0.20;99.90
37702;DHT22;23548;51.196;6.838;2022-12-18T17:55:31;0.20;99.90
37702;DHT22;23548;51.196;6.838;2022-12-18T17:57:59;0.30;99.90
37702;DHT22;23548;51.196;6.838;2022-12-18T18:00:35;0.10;99.90